Time,TemperatureF,DewpointF,PressureIn,WindDirection,WindDirectionDegrees,WindSpeedMPH,WindSpeedGustMPH,Humidity,HourlyPrecipIn,Conditions,Clouds,dailyrainin,SoftwareType,DateUTC
2013-12-10 00:12:00,38.0,-99.9,29.95,West,281,6.0,-999.0,-999,-99.99,,,-99.99,,2013-12-10 05:12:00,
2013-12-10 00:23:00,38.0,-99.9,29.95,West,281,6.0,-999.0,-999,-99.99,,,-99.99,,2013-12-10 05:23:00,
2013-12-10 00:30:00,37.0,-99.9,29.95,WNW,291,6.0,-999.0,-999,-99.99,,,-99.99,,2013-12-10 05:30:00,
2013-12-10 00:33:00,38.0,-99.9,29.95,West,281,6.0,-999.0,-999,-99.99,,,-99.99,,2013-12-10 05:33:00,
2013-12-10 00:43:00,38.0,-99.9,29.95,West,281,6.0,-999.0,-999,-99.99,,,-99.99,,2013-12-10 05:43:00,
2013-12-10 01:12:00,37.0,-99.9,29.95,WNW,291,6.0,-999.0,-999,-99.99,,,-99.99,,2013-12-10 06:12:00,
2013-12-10 01:22:00,37.0,-99.9,29.95,WNW,291,6.0,-999.0,-999,-99.99,,,-99.99,,2013-12-10 06:22:00,
2013-12-10 01:30:00,37.0,-99.9,29.96,WNW,286,6.0,-999.0,-999,-99.99,,,-99.99,,2013-12-10 06:30:00,
2013-12-10 02:11:00,37.0,-99.9,29.96,WNW,286,6.0,-999.0,-999,-99.99,,,-99.99,,2013-12-10 07:11:00,
2013-12-10 02:22:00,37.0,-99.9,29.96,WNW,286,6.0,-999.0,-999,-99.99,,,-99.99,,2013-12-10 07:22:00,
2013-12-10 02:30:00,36.0,-99.9,29.96,West,272,6.0,-999.0,-999,-99.99,,,-99.99,,2013-12-10 07:30:00,
2013-12-10 03:12:00,36.0,-99.9,29.96,West,272,6.0,-999.0,-999,-99.99,,,-99.99,,2013-12-10 08:12:00,
2013-12-10 03:22:00,36.0,-99.9,29.96,West,272,6.0,-999.0,-999,-99.99,,,-99.99,,2013-12-10 08:22:00,
2013-12-10 03:30:00,35.0,-99.9,29.94,West,272,6.0,-999.0,-999,-99.99,,,-99.99,,2013-12-10 08:30:00,
2013-12-10 04:11:00,35.0,-99.9,29.94,West,272,6.0,-999.0,-999,-99.99,,,-99.99,,2013-12-10 09:11:00,
2013-12-10 04:22:00,35.0,-99.9,29.94,West,272,6.0,-999.0,-999,-99.99,,,-99.99,,2013-12-10 09:22:00,
2013-12-10 04:30:00,34.0,-99.9,29.95,West,274,6.0,-999.0,-999,-99.99,,,-99.99,,2013-12-10 09:30:00,
2013-12-10 05:12:00,34.0,-99.9,29.95,West,274,6.0,-999.0,-999,-99.99,,,-99.99,,2013-12-10 10:12:00,
2013-12-10 05:23:00,34.0,-99.9,29.95,West,274,6.0,-999.0,-999,-99.99,,,-99.99,,2013-12-10 10:23:00,
2013-12-10 06:12:00,35.0,-99.9,-100.00,WNW,294,9.0,-999.0,-999,-99.99,,,-99.99,,2013-12-10 11:12:00,
2013-12-10 06:23:00,35.0,-99.9,30.00,WNW,294,9.0,-999.0,-999,-99.99,,,-99.99,,2013-12-10 11:23:00,
2013-12-10 06:30:00,36.0,-99.9,29.99,SW,223,3.0,-999.0,-999,-99.99,,,-99.99,,2013-12-10 11:30:00,
2013-12-10 06:33:00,35.0,-99.9,30.00,WNW,294,9.0,-999.0,-999,-99.99,,,-99.99,,2013-12-10 11:33:00,
2013-12-10 06:43:00,35.0,-99.9,30.00,WNW,294,9.0,-999.0,-999,-99.99,,,-99.99,,2013-12-10 11:43:00,
2013-12-10 07:12:00,36.0,-99.9,29.99,SW,223,3.0,-999.0,-999,-99.99,,,-99.99,,2013-12-10 12:12:00,
2013-12-10 07:22:00,36.0,-99.9,29.99,SW,223,3.0,-999.0,-999,-99.99,,,-99.99,,2013-12-10 12:22:00,
2013-12-10 07:30:00,35.0,-99.9,29.98,WNW,285,3.0,-999.0,-999,-99.99,,,-99.99,,2013-12-10 12:30:00,
2013-12-10 08:12:00,35.0,-99.9,29.98,WNW,285,3.0,-999.0,-999,-99.99,,,-99.99,,2013-12-10 13:12:00,
2013-12-10 08:22:00,35.0,-99.9,29.98,WNW,285,3.0,-999.0,-999,-99.99,,,-99.99,,2013-12-10 13:22:00,
2013-12-10 08:30:00,35.0,-99.9,29.98,NW,325,4.0,-999.0,-999,-99.99,,,-99.99,,2013-12-10 13:30:00,
2013-12-10 09:11:00,35.0,-99.9,29.98,NW,325,4.0,-999.0,-999,-99.99,,,-99.99,,2013-12-10 14:11:00,
2013-12-10 09:22:00,35.0,-99.9,29.98,NW,325,4.0,-999.0,-999,-99.99,,,-99.99,,2013-12-10 14:22:00,
2013-12-10 09:30:00,36.0,-99.9,29.98,NNW,333,4.0,-999.0,-999,-99.99,,,-99.99,,2013-12-10 14:30:00,
2013-12-10 09:52:00,36.0,-99.9,29.98,NNW,333,4.0,-999.0,-999,-99.99,,,-99.99,,2013-12-10 14:52:00,
2013-12-10 10:02:00,36.0,-99.9,29.98,NNW,333,4.0,-999.0,-999,-99.99,,,-99.99,,2013-12-10 15:02:00,
2013-12-10 10:11:00,36.0,-99.9,29.98,NNW,333,4.0,-999.0,-999,-99.99,,,-99.99,,2013-12-10 15:11:00,
2013-12-10 10:22:00,36.0,-99.9,29.98,NNW,333,4.0,-999.0,-999,-99.99,,,-99.99,,2013-12-10 15:22:00,
2013-12-10 10:30:00,35.0,-99.9,29.97,NW,320,5.0,-999.0,-999,-99.99,,,-99.99,,2013-12-10 15:30:00,
2013-12-10 11:13:00,35.0,-99.9,29.97,NW,320,5.0,-999.0,-999,-99.99,,,-99.99,,2013-12-10 16:13:00,
2013-12-10 11:24:00,35.0,-99.9,29.97,NW,320,5.0,-999.0,-999,-99.99,,,-99.99,,2013-12-10 16:24:00,
2013-12-10 12:22:00,33.0,-99.9,29.91,NW,320,5.0,-999.0,-999,-99.99,,,-99.99,,2013-12-10 17:22:00,
2013-12-10 12:30:00,34.0,-99.9,29.83,NW,318,5.0,-999.0,-999,-99.99,,,-99.99,,2013-12-10 17:30:00,
2013-12-10 12:34:00,33.0,-99.9,29.91,NW,320,5.0,-999.0,-999,-99.99,,,-99.99,,2013-12-10 17:34:00,
2013-12-10 12:43:00,33.0,-99.9,29.91,NW,320,5.0,-999.0,-999,-99.99,,,-99.99,,2013-12-10 17:43:00,
2013-12-10 13:11:00,34.0,-99.9,29.83,NW,318,5.0,-999.0,-999,-99.99,,,-99.99,,2013-12-10 18:11:00,
2013-12-10 13:22:00,34.0,-99.9,29.83,NW,318,5.0,-999.0,-999,-99.99,,,-99.99,,2013-12-10 18:22:00,
2013-12-10 13:30:00,34.0,-99.9,29.84,NW,318,6.0,-999.0,-999,-99.99,,,-99.99,,2013-12-10 18:30:00,
2013-12-10 14:11:00,34.0,-99.9,29.84,NW,318,6.0,-999.0,-999,-99.99,,,-99.99,,2013-12-10 19:11:00,
2013-12-10 14:22:00,34.0,-99.9,29.84,NW,318,6.0,-999.0,-999,-99.99,,,-99.99,,2013-12-10 19:22:00,
2013-12-10 14:30:00,33.0,-99.9,29.85,NW,325,5.0,-999.0,-999,-99.99,,,-99.99,,2013-12-10 19:30:00,
2013-12-10 15:11:00,33.0,-99.9,29.85,NW,325,5.0,-999.0,-999,-99.99,,,-99.99,,2013-12-10 20:11:00,
2013-12-10 15:22:00,33.0,-99.9,29.85,NW,325,5.0,-999.0,-999,-99.99,,,-99.99,,2013-12-10 20:22:00,
2013-12-10 15:30:00,33.0,-99.9,29.85,NNW,336,4.0,-999.0,-999,-99.99,,,-99.99,,2013-12-10 20:30:00,
2013-12-10 16:12:00,33.0,-99.9,29.85,NNW,336,4.0,-999.0,-999,-99.99,,,-99.99,,2013-12-10 21:12:00,
2013-12-10 16:22:00,33.0,-99.9,29.85,NNW,336,4.0,-999.0,-999,-99.99,,,-99.99,,2013-12-10 21:22:00,
2013-12-10 16:30:00,33.0,-99.9,29.87,NNW,333,4.0,-999.0,-999,-99.99,,,-99.99,,2013-12-10 21:30:00,
2013-12-10 17:13:00,33.0,-99.9,29.87,NNW,333,4.0,-999.0,-999,-99.99,,,-99.99,,2013-12-10 22:13:00,
2013-12-10 17:23:00,33.0,-99.9,29.87,NNW,333,4.0,-999.0,-999,-99.99,,,-99.99,,2013-12-10 22:23:00,
2013-12-10 18:22:00,32.0,-99.9,29.89,WNW,291,5.0,-999.0,-999,-99.99,,,-99.99,,2013-12-10 23:22:00,
2013-12-10 18:30:00,33.0,-99.9,29.90,NW,308,7.0,-999.0,-999,-99.99,,,-99.99,,2013-12-10 23:30:00,
2013-12-10 18:33:00,32.0,-99.9,29.89,WNW,291,5.0,-999.0,-999,-99.99,,,-99.99,,2013-12-10 23:33:00,
2013-12-10 18:43:00,32.0,-99.9,29.89,WNW,291,5.0,-999.0,-999,-99.99,,,-99.99,,2013-12-10 23:43:00,
2013-12-10 19:12:00,33.0,-99.9,29.90,NW,308,7.0,-999.0,-999,-99.99,,,-99.99,,2013-12-11 00:12:00,
2013-12-10 19:23:00,33.0,-99.9,29.90,NW,308,7.0,-999.0,-999,-99.99,,,-99.99,,2013-12-11 00:23:00,
2013-12-10 19:30:00,33.0,-99.9,29.92,NW,326,12.0,-999.0,-999,-99.99,,,-99.99,,2013-12-11 00:30:00,
2013-12-10 20:11:00,33.0,-99.9,29.92,NW,326,12.0,-999.0,-999,-99.99,,,-99.99,,2013-12-11 01:11:00,
2013-12-10 20:22:00,33.0,-99.9,29.92,NW,326,12.0,-999.0,-999,-99.99,,,-99.99,,2013-12-11 01:22:00,
2013-12-10 20:30:00,32.0,-99.9,29.94,NW,317,17.0,-999.0,-999,-99.99,,,-99.99,,2013-12-11 01:30:00,
2013-12-10 20:52:00,32.0,-99.9,29.94,NW,317,17.0,-999.0,-999,-99.99,,,-99.99,,2013-12-11 01:52:00,
2013-12-10 21:02:00,32.0,-99.9,29.94,NW,317,17.0,-999.0,-999,-99.99,,,-99.99,,2013-12-11 02:02:00,
2013-12-10 21:12:00,32.0,-99.9,29.94,NW,317,17.0,-999.0,-999,-99.99,,,-99.99,,2013-12-11 02:12:00,
2013-12-10 21:22:00,32.0,-99.9,29.94,NW,317,17.0,-999.0,-999,-99.99,,,-99.99,,2013-12-11 02:22:00,
2013-12-10 21:30:00,31.0,-99.9,29.97,NW,315,10.0,-999.0,-999,-99.99,,,-99.99,,2013-12-11 02:30:00,
2013-12-10 22:11:00,31.0,-99.9,29.97,NW,315,10.0,-999.0,-999,-99.99,,,-99.99,,2013-12-11 03:11:00,
2013-12-10 22:22:00,31.0,-99.9,29.97,NW,315,10.0,-999.0,-999,-99.99,,,-99.99,,2013-12-11 03:22:00,
2013-12-10 22:30:00,29.0,-99.9,30.01,NW,313,8.0,-999.0,-999,-99.99,,,-99.99,,2013-12-11 03:30:00,
2013-12-10 23:13:00,29.0,-99.9,30.01,NW,313,8.0,-999.0,-999,-99.99,,,-99.99,,2013-12-11 04:13:00,
2013-12-10 23:23:00,29.0,-99.9,30.01,NW,313,8.0,-999.0,-999,-99.99,,,-99.99,,2013-12-11 04:23:00,